Mvricosiete — 9GDN — position and weather

sailwx.info

Track history (hours):
 
Tides and Currents Weather Stations Pressure Air Temp Water Temp Dewpoint Dewpoint Depression Visibility Wind Speed Wind Dir Waves Ship Positions

Mvricosiete

Last reported at 2017-Dec-20 12:15 UTC. Time now 2018-Jan-19 13:27 UTC.
Position N 05°37' E 000°01'.
Warning: this ship's position is 30 days out of date.

Type: Fishing. MMSI: 627762000.

Date/timePositionNaut miles runAvg speedWind from/ knotsBaromVisibWave heightAir tempDewpointWater temp
2017-Dec-20 12:15N 05°37' E 000°01'1 3.5
2017-Dec-20 12:00N 05°38' E 000°02'4 8.4
2017-Dec-20 11:30N 05°37' E 000°07'4 7.4
2017-Dec-20 11:00N 05°36' E 000°10'4 8.0
2017-Dec-20 10:30N 05°35' E 000°14'3 5.7
2017-Dec-20 10:00N 05°33' E 000°16'3 5.6
2017-Dec-20 09:27N 05°30' E 000°18'3 4.5
2017-Dec-20 08:53N 05°28' E 000°19'1 1.9
2017-Dec-20 08:16N 05°28' E 000°18'1 1.9
2017-Dec-20 07:51N 05°27' E 000°17'1 1.6
2017-Dec-20 07:27N 05°27' E 000°17'  
2017-Dec-13 11:21N 05°25' W 000°19'1 1.8
2017-Dec-13 11:00N 05°26' W 000°20'  
Track history (hours):
 
Tides and Currents Weather Stations Pressure Air Temp Water Temp Dewpoint Dewpoint Depression Visibility Wind Speed Wind Dir Waves Ship Positions

Mvricosiete

Last reported at 2017-Dec-20 12:15 UTC. Time now 2018-Jan-19 13:27 UTC.
Position N 05°37' E 000°01'.
Warning: this ship's position is 30 days out of date.

Type: Fishing. MMSI: 627762000.

Date/timePositionNaut miles runAvg speedWind from/ knotsBaromVisibWave heightAir tempDewpointWater temp
2017-Dec-20 12:15N 05°37' E 000°01'1 3.5
2017-Dec-20 12:00N 05°38' E 000°02'4 8.4
2017-Dec-20 11:30N 05°37' E 000°07'4 7.4
2017-Dec-20 11:00N 05°36' E 000°10'4 8.0
2017-Dec-20 10:30N 05°35' E 000°14'3 5.7
2017-Dec-20 10:00N 05°33' E 000°16'3 5.6
2017-Dec-20 09:27N 05°30' E 000°18'3 4.5
2017-Dec-20 08:53N 05°28' E 000°19'1 1.9
2017-Dec-20 08:16N 05°28' E 000°18'1 1.9
2017-Dec-20 07:51N 05°27' E 000°17'1 1.6
2017-Dec-20 07:27N 05°27' E 000°17'  
2017-Dec-13 11:21N 05°25' W 000°19'1 1.8
2017-Dec-13 11:00N 05°26' W 000°20'  

Dump ship's entire track history